Time;durP1;ratioP1;P1;durP2;ratioP2;P2;SDS_P1;SDS_P2;PMS_P1;PMS_P2;Temp;Humidity;BMP_temperature;BMP_pressure;BME280_temperature;BME280_humidity;BME280_pressure;Samples;Min_cycle;Max_cycle;Signal;HPM_P1;HPM_P2
2023/12/30 00:00:22;;;;;;;11.27;1.88;;;7.10;99.90;;;;;;5059246;28;20040;-76
2023/12/30 00:02:48;;;;;;;8.63;1.80;;;7.10;99.90;;;;;;5058113;28;20149;-77
2023/12/30 00:05:15;;;;;;;9.07;1.90;;;7.10;99.90;;;;;;5041486;28;20047;-76
2023/12/30 00:07:40;;;;;;;10.18;1.77;;;7.10;99.90;;;;;;5057878;28;20123;-77
2023/12/30 00:10:07;;;;;;;11.18;1.60;;;7.10;99.90;;;;;;5024950;28;20619;-76
2023/12/30 00:12:33;;;;;;;10.55;1.77;;;7.10;99.90;;;;;;5057832;28;20040;-75
2023/12/30 00:14:59;;;;;;;8.38;2.00;;;7.00;99.90;;;;;;5041931;28;20101;-76
2023/12/30 00:17:25;;;;;;;8.20;1.73;;;7.10;99.90;;;;;;5041456;28;20040;-75
2023/12/30 00:19:53;;;;;;;9.32;1.50;;;7.00;99.90;;;;;;5041575;28;20040;-76
2023/12/30 00:22:19;;;;;;;7.22;1.42;;;7.10;99.90;;;;;;5025707;28;20055;-77
2023/12/30 00:24:44;;;;;;;7.20;1.40;;;7.10;99.90;;;;;;5025938;28;20044;-76
2023/12/30 00:27:10;;;;;;;9.02;1.60;;;7.00;99.90;;;;;;5059180;28;20090;-77
2023/12/30 00:29:39;;;;;;;10.20;1.63;;;7.00;99.90;;;;;;5042682;28;20048;-76
2023/12/30 00:32:06;;;;;;;9.75;1.85;;;7.00;99.90;;;;;;5058997;28;20090;-75
2023/12/30 00:34:35;;;;;;;9.88;2.20;;;7.00;99.90;;;;;;5059397;28;20598;-77
2023/12/30 00:37:01;;;;;;;9.75;1.90;;;7.00;99.90;;;;;;5042322;28;20037;-76
2023/12/30 00:39:27;;;;;;;8.90;1.67;;;7.10;99.90;;;;;;5041062;28;20036;-74
2023/12/30 00:41:53;;;;;;;10.07;1.70;;;7.00;99.90;;;;;;5040941;28;20076;-75
2023/12/30 00:44:18;;;;;;;8.75;1.80;;;7.00;99.90;;;;;;5056954;28;20072;-75
2023/12/30 00:46:44;;;;;;;10.60;1.90;;;7.00;99.90;;;;;;5057201;28;20129;-75
2023/12/30 00:49:11;;;;;;;10.23;1.80;;;7.00;99.90;;;;;;5040638;28;20036;-76
2023/12/30 00:51:37;;;;;;;8.98;1.73;;;6.90;99.90;;;;;;5057388;28;20044;-77
2023/12/30 00:54:03;;;;;;;8.75;1.70;;;6.80;99.90;;;;;;5040297;28;20094;-76
2023/12/30 00:56:29;;;;;;;10.05;1.80;;;6.90;99.90;;;;;;5056838;28;20075;-75
2023/12/30 00:58:55;;;;;;;8.43;1.50;;;6.80;99.90;;;;;;5040471;28;20044;-76
2023/12/30 01:01:21;;;;;;;9.95;1.80;;;6.80;99.90;;;;;;5024234;28;20037;-75
2023/12/30 01:03:46;;;;;;;9.80;1.70;;;6.80;99.90;;;;;;5040689;28;20048;-75
2023/12/30 01:06:12;;;;;;;8.00;1.33;;;6.70;99.90;;;;;;5040423;28;20083;-75
2023/12/30 01:08:38;;;;;;;7.20;1.50;;;6.70;99.90;;;;;;5056788;28;20132;-75
2023/12/30 01:11:04;;;;;;;10.90;1.83;;;6.70;99.90;;;;;;5056590;28;20568;-75
2023/12/30 01:13:30;;;;;;;10.27;1.90;;;6.70;99.90;;;;;;5056500;28;20097;-74
2023/12/30 01:15:55;;;;;;;9.18;1.77;;;6.80;99.90;;;;;;5040240;28;20033;-76
2023/12/30 01:18:21;;;;;;;7.25;1.60;;;6.70;99.90;;;;;;5040016;28;20037;-75
2023/12/30 01:20:47;;;;;;;9.88;1.60;;;6.70;99.90;;;;;;5023636;28;20028;-75
2023/12/30 01:23:14;;;;;;;9.52;1.80;;;6.70;99.90;;;;;;5057035;28;20041;-75
2023/12/30 01:25:42;;;;;;;9.15;1.70;;;6.60;99.90;;;;;;5040031;28;20040;-75
2023/12/30 01:28:09;;;;;;;10.30;1.75;;;6.70;99.90;;;;;;5056522;28;20501;-75
2023/12/30 01:30:37;;;;;;;11.77;1.63;;;6.70;99.90;;;;;;5056195;28;20110;-75
2023/12/30 01:33:04;;;;;;;9.93;1.58;;;6.70;99.90;;;;;;5039633;28;20436;-76
2023/12/30 01:35:30;;;;;;;10.95;1.70;;;6.60;99.90;;;;;;5040015;28;20378;-75
2023/12/30 01:37:55;;;;;;;9.05;1.55;;;6.70;99.90;;;;;;5056402;28;20137;-75
2023/12/30 01:40:21;;;;;;;9.10;1.83;;;6.60;99.90;;;;;;5022844;28;20089;-75
2023/12/30 01:42:47;;;;;;;9.13;1.70;;;6.60;99.90;;;;;;5039488;28;20182;-75
2023/12/30 01:45:13;;;;;;;8.73;1.58;;;6.60;99.90;;;;;;5039556;28;20106;-76
2023/12/30 01:47:39;;;;;;;9.68;1.67;;;6.60;99.90;;;;;;5039255;28;20135;-75
2023/12/30 01:50:06;;;;;;;7.13;1.60;;;6.60;99.90;;;;;;5039529;28;20131;-75
2023/12/30 01:52:35;;;;;;;9.48;1.70;;;6.60;99.90;;;;;;5055741;28;20051;-75
2023/12/30 01:55:01;;;;;;;9.52;1.77;;;6.60;99.90;;;;;;5021923;28;20040;-75
2023/12/30 01:57:27;;;;;;;8.60;1.60;;;6.60;99.90;;;;;;5055497;28;20067;-75
2023/12/30 01:59:53;;;;;;;9.52;1.80;;;6.60;99.90;;;;;;5039088;28;20547;-76
2023/12/30 02:02:21;;;;;;;9.68;1.73;;;6.60;99.90;;;;;;5055932;28;20051;-75
2023/12/30 02:04:47;;;;;;;8.48;1.50;;;6.60;99.90;;;;;;5055537;28;20044;-75
2023/12/30 02:07:13;;;;;;;11.73;1.90;;;6.60;99.90;;;;;;5055574;28;20101;-75
2023/12/30 02:09:38;;;;;;;8.50;1.50;;;6.60;99.90;;;;;;5038883;28;20499;-75
2023/12/30 02:12:05;;;;;;;7.07;1.55;;;6.60;99.90;;;;;;5022269;28;20040;-75
2023/12/30 02:14:31;;;;;;;7.90;1.70;;;6.50;99.90;;;;;;5055719;28;20082;-75
2023/12/30 02:16:57;;;;;;;9.43;1.73;;;6.50;99.90;;;;;;5038852;28;20075;-75
2023/12/30 02:19:23;;;;;;;9.73;1.70;;;6.50;99.90;;;;;;5055255;28;20076;-75
2023/12/30 02:21:50;;;;;;;9.90;1.60;;;6.50;99.90;;;;;;5038721;28;20044;-75
2023/12/30 02:24:16;;;;;;;8.65;1.50;;;6.50;99.90;;;;;;5055040;28;20045;-75
2023/12/30 02:26:42;;;;;;;8.85;1.52;;;6.50;99.90;;;;;;5055199;28;20062;-75
2023/12/30 02:29:08;;;;;;;8.93;1.73;;;6.50;99.90;;;;;;5038738;28;20040;-75
2023/12/30 02:31:45;;;;;;;8.23;1.63;;;6.50;99.90;;;;;;5055358;28;20142;-75
2023/12/30 02:34:20;;;;;;;11.82;1.60;;;6.50;99.90;;;;;;5054995;28;20050;-75
2023/12/30 02:36:47;;;;;;;11.57;1.80;;;6.50;99.90;;;;;;5054885;28;20040;-75
2023/12/30 02:39:13;;;;;;;9.93;1.63;;;6.50;99.90;;;;;;5054905;28;20041;-75
2023/12/30 02:41:39;;;;;;;9.75;1.58;;;6.40;99.90;;;;;;5038306;28;20040;-75
2023/12/30 02:44:05;;;;;;;10.80;1.80;;;6.50;99.90;;;;;;5038316;28;20382;-75
2023/12/30 02:46:31;;;;;;;11.15;1.77;;;6.50;99.90;;;;;;5038507;28;20110;-75
2023/12/30 02:48:57;;;;;;;9.98;1.63;;;6.50;99.90;;;;;;5054767;28;20074;-75
2023/12/30 02:51:23;;;;;;;10.45;1.65;;;6.50;99.90;;;;;;5038198;28;20044;-75
2023/12/30 02:53:49;;;;;;;9.65;1.65;;;6.50;99.90;;;;;;5054829;28;20543;-75
2023/12/30 02:56:23;;;;;;;9.80;1.85;;;6.50;99.90;;;;;;5038094;28;20056;-75
2023/12/30 02:58:53;;;;;;;11.13;1.77;;;6.40;99.90;;;;;;5054748;28;20080;-75
2023/12/30 03:01:19;;;;;;;13.30;1.90;;;6.40;99.90;;;;;;5054741;28;20036;-75
2023/12/30 03:03:45;;;;;;;10.98;1.70;;;6.40;99.90;;;;;;5054952;28;20048;-75
2023/12/30 03:06:14;;;;;;;9.35;1.90;;;6.40;99.90;;;;;;5054252;28;20045;-75
2023/12/30 03:08:40;;;;;;;8.07;1.95;;;6.30;99.90;;;;;;5038039;28;20052;-74
2023/12/30 03:11:09;;;;;;;7.90;1.70;;;6.30;99.90;;;;;;5038221;28;20048;-75
2023/12/30 03:13:35;;;;;;;10.27;1.90;;;6.30;99.90;;;;;;5038169;28;20086;-73
2023/12/30 03:16:01;;;;;;;9.75;1.60;;;6.30;99.90;;;;;;5038090;28;20040;-75
2023/12/30 03:18:27;;;;;;;10.27;1.60;;;6.20;99.90;;;;;;5038053;28;20145;-75
2023/12/30 03:20:53;;;;;;;10.18;1.77;;;6.20;99.90;;;;;;5037926;28;20496;-75
2023/12/30 03:23:19;;;;;;;12.10;1.90;;;6.20;99.90;;;;;;5037918;28;20085;-75
2023/12/30 03:25:44;;;;;;;9.30;1.55;;;6.30;99.90;;;;;;5054705;28;20127;-75
2023/12/30 03:28:10;;;;;;;11.10;1.83;;;6.30;99.90;;;;;;5054656;28;20040;-75
2023/12/30 03:30:36;;;;;;;10.35;1.65;;;6.30;99.90;;;;;;5037976;28;20105;-75
2023/12/30 03:33:02;;;;;;;10.52;1.83;;;6.20;99.90;;;;;;5037854;28;20041;-74
2023/12/30 03:35:27;;;;;;;12.85;1.50;;;6.30;99.90;;;;;;5054720;28;20127;-75
2023/12/30 03:37:53;;;;;;;12.52;2.15;;;6.20;99.90;;;;;;5054864;28;20120;-75
2023/12/30 03:40:19;;;;;;;12.00;1.95;;;6.30;99.90;;;;;;5037852;28;20037;-75
2023/12/30 03:42:45;;;;;;;13.00;1.80;;;6.20;99.90;;;;;;5037729;28;20045;-76
2023/12/30 03:45:10;;;;;;;11.65;1.90;;;6.20;99.90;;;;;;5038193;28;20045;-76
2023/12/30 03:47:36;;;;;;;10.75;2.08;;;6.10;99.90;;;;;;5037849;28;20055;-75
2023/12/30 03:50:02;;;;;;;10.73;1.60;;;6.20;99.90;;;;;;5038027;28;20073;-76
2023/12/30 03:52:29;;;;;;;9.80;1.85;;;6.10;99.90;;;;;;5054157;28;20040;-75
2023/12/30 03:54:55;;;;;;;9.70;1.75;;;6.10;99.90;;;;;;5037577;28;20063;-75
2023/12/30 03:57:22;;;;;;;9.77;1.75;;;6.10;99.90;;;;;;5037725;28;20076;-76
2023/12/30 03:59:47;;;;;;;10.45;1.73;;;6.10;99.90;;;;;;5037945;28;20503;-76
2023/12/30 04:02:17;;;;;;;8.65;1.85;;;6.10;99.90;;;;;;5037891;28;20033;-76
2023/12/30 04:04:43;;;;;;;10.95;1.75;;;6.10;99.90;;;;;;5037950;28;20040;-76
2023/12/30 04:07:09;;;;;;;11.05;1.80;;;6.10;99.90;;;;;;5037814;28;20450;-76
2023/12/30 04:09:35;;;;;;;12.27;2.08;;;6.10;99.90;;;;;;5037548;28;20039;-76
2023/12/30 04:12:00;;;;;;;9.82;2.15;;;6.00;99.90;;;;;;5037413;28;20041;-76
2023/12/30 04:14:26;;;;;;;13.05;1.90;;;6.00;99.90;;;;;;5037452;28;20044;-75
2023/12/30 04:16:52;;;;;;;9.93;1.80;;;6.00;99.90;;;;;;5037720;28;20481;-75
2023/12/30 04:19:17;;;;;;;10.07;1.90;;;5.90;99.90;;;;;;5023543;28;20123;-76
2023/12/30 04:21:43;;;;;;;14.82;2.03;;;5.90;99.90;;;;;;5040887;28;20037;-76
2023/12/30 04:24:09;;;;;;;12.23;2.17;;;5.90;99.90;;;;;;5057693;28;20478;-74
2023/12/30 04:26:35;;;;;;;9.75;1.80;;;5.90;99.90;;;;;;5040773;28;20043;-74
2023/12/30 04:29:00;;;;;;;10.27;2.10;;;5.80;99.90;;;;;;5057601;28;20040;-75
2023/12/30 04:31:26;;;;;;;12.98;2.00;;;5.80;99.90;;;;;;5041097;28;20049;-74
2023/12/30 04:33:52;;;;;;;14.18;2.00;;;5.70;99.90;;;;;;5040649;28;20071;-74
2023/12/30 04:36:17;;;;;;;13.27;2.10;;;5.70;99.90;;;;;;5040673;28;20089;-75
2023/12/30 04:38:43;;;;;;;11.88;1.90;;;5.50;99.90;;;;;;5057518;28;20485;-75
2023/12/30 04:41:09;;;;;;;9.70;1.70;;;5.40;99.90;;;;;;5024192;28;20100;-74
2023/12/30 04:43:35;;;;;;;12.45;2.05;;;5.40;99.90;;;;;;5040616;28;20063;-74
2023/12/30 04:46:01;;;;;;;9.52;1.65;;;5.40;99.90;;;;;;5057120;28;20123;-74
2023/12/30 04:48:26;;;;;;;12.77;2.00;;;5.30;99.90;;;;;;5056923;28;20056;-74
2023/12/30 04:50:53;;;;;;;11.88;2.00;;;5.30;99.90;;;;;;5040704;28;20538;-74
2023/12/30 04:53:19;;;;;;;11.05;1.88;;;5.20;99.90;;;;;;5040436;28;20504;-74
2023/12/30 04:55:44;;;;;;;11.02;1.73;;;5.20;99.90;;;;;;5040202;28;20053;-74
2023/12/30 04:58:10;;;;;;;14.27;2.08;;;5.20;99.90;;;;;;5040164;28;20045;-74
2023/12/30 05:00:36;;;;;;;11.27;1.98;;;5.10;99.90;;;;;;5057041;28;20068;-74
2023/12/30 05:03:02;;;;;;;9.80;2.00;;;5.10;99.90;;;;;;5040558;28;20044;-74
2023/12/30 05:05:28;;;;;;;11.20;1.92;;;5.10;99.90;;;;;;5040508;28;20082;-74
2023/12/30 05:07:54;;;;;;;10.70;1.92;;;5.20;99.90;;;;;;5056829;28;20036;-74
2023/12/30 05:10:19;;;;;;;10.43;1.90;;;5.20;99.90;;;;;;5023553;28;20045;-74
2023/12/30 05:12:45;;;;;;;10.32;2.15;;;5.10;99.90;;;;;;5039842;28;20041;-74
2023/12/30 05:15:14;;;;;;;11.10;1.80;;;5.10;99.90;;;;;;5056843;28;20193;-74
2023/12/30 05:17:40;;;;;;;13.32;2.10;;;5.10;99.90;;;;;;5023643;28;20075;-74
2023/12/30 05:20:08;;;;;;;11.40;2.22;;;5.00;99.90;;;;;;5039866;28;20517;-74
2023/12/30 05:22:36;;;;;;;12.52;2.00;;;5.00;99.90;;;;;;5056612;28;20489;-74
2023/12/30 05:25:02;;;;;;;12.68;1.83;;;4.90;99.90;;;;;;5056611;28;20036;-73
2023/12/30 05:27:28;;;;;;;10.95;1.75;;;4.90;99.90;;;;;;5039717;28;20051;-74
2023/12/30 05:29:54;;;;;;;13.88;2.30;;;5.00;99.90;;;;;;5039524;28;20064;-74
2023/12/30 05:32:19;;;;;;;12.55;2.17;;;4.90;99.90;;;;;;5039741;28;20044;-74
2023/12/30 05:34:45;;;;;;;14.13;2.28;;;4.90;99.90;;;;;;5056081;28;20032;-74
2023/12/30 05:37:11;;;;;;;14.35;2.03;;;4.90;99.90;;;;;;5056039;28;20044;-74
2023/12/30 05:39:37;;;;;;;13.85;2.20;;;4.90;99.90;;;;;;5039476;28;20044;-73
2023/12/30 05:42:03;;;;;;;11.50;2.10;;;5.00;99.90;;;;;;5022956;28;20503;-74
2023/12/30 05:44:29;;;;;;;15.15;2.33;;;4.90;99.90;;;;;;5055908;28;20032;-74
2023/12/30 05:46:54;;;;;;;14.27;2.15;;;4.90;99.90;;;;;;5006645;28;20040;-70
2023/12/30 05:49:20;;;;;;;10.13;2.03;;;4.90;99.90;;;;;;5039397;28;20449;-69
2023/12/30 05:51:46;;;;;;;11.35;1.95;;;4.90;99.90;;;;;;5055662;28;20080;-69
2023/12/30 05:54:12;;;;;;;15.07;2.17;;;4.90;99.90;;;;;;5055568;28;20451;-69
2023/12/30 05:56:37;;;;;;;12.77;2.00;;;5.00;99.90;;;;;;5055251;28;20052;-69
2023/12/30 05:59:03;;;;;;;11.43;1.98;;;5.00;99.90;;;;;;5039088;28;20044;-70
2023/12/30 06:01:29;;;;;;;11.20;1.90;;;5.00;99.90;;;;;;5055479;28;20036;-69
2023/12/30 06:03:55;;;;;;;10.68;2.00;;;5.00;99.90;;;;;;5055469;28;20044;-69
2023/12/30 06:06:20;;;;;;;13.77;2.25;;;5.00;99.90;;;;;;5055524;28;20075;-69
2023/12/30 06:08:47;;;;;;;12.55;2.20;;;5.00;99.90;;;;;;5038860;28;20484;-70
2023/12/30 06:11:13;;;;;;;14.93;2.00;;;5.10;99.90;;;;;;5039231;28;20036;-69
2023/12/30 06:13:41;;;;;;;13.65;1.92;;;5.10;99.90;;;;;;5055236;28;20041;-69
2023/12/30 06:16:10;;;;;;;11.88;1.98;;;5.00;99.90;;;;;;5039087;28;20048;-69
2023/12/30 06:18:37;;;;;;;14.55;2.15;;;5.00;99.90;;;;;;5055633;28;20241;-70
2023/12/30 06:21:04;;;;;;;10.60;1.90;;;5.00;99.90;;;;;;5055283;28;20036;-69
2023/12/30 06:23:32;;;;;;;12.80;2.10;;;5.00;99.90;;;;;;5038815;28;20074;-70
2023/12/30 06:25:58;;;;;;;11.35;2.05;;;4.90;99.90;;;;;;5055093;28;20113;-69
2023/12/30 06:28:25;;;;;;;12.20;2.30;;;4.90;99.90;;;;;;5055420;28;20492;-69
2023/12/30 06:30:51;;;;;;;13.13;2.00;;;5.00;99.90;;;;;;5055025;28;20040;-69
2023/12/30 06:33:17;;;;;;;12.50;1.88;;;5.00;99.90;;;;;;5038490;28;20055;-69
2023/12/30 06:35:43;;;;;;;14.82;2.40;;;5.00;99.90;;;;;;5055197;28;20032;-70
2023/12/30 06:38:08;;;;;;;14.95;2.30;;;5.20;99.90;;;;;;5038712;28;20119;-69
2023/12/30 06:40:34;;;;;;;15.40;2.10;;;5.10;99.90;;;;;;5054709;28;20071;-70
2023/12/30 06:43:00;;;;;;;13.55;1.95;;;5.10;99.90;;;;;;5054703;28;20041;-69
2023/12/30 06:45:25;;;;;;;13.45;2.42;;;5.00;99.90;;;;;;5055213;28;20059;-69
2023/12/30 06:47:51;;;;;;;12.30;2.03;;;5.10;99.90;;;;;;5038210;28;20169;-69
2023/12/30 06:50:19;;;;;;;10.57;1.88;;;5.10;99.90;;;;;;5054809;28;20037;-69
2023/12/30 06:52:46;;;;;;;15.38;2.20;;;5.10;99.90;;;;;;5054728;28;20123;-69
2023/12/30 06:55:13;;;;;;;10.50;2.10;;;5.10;99.90;;;;;;5038459;28;20040;-70
2023/12/30 06:57:40;;;;;;;12.60;2.20;;;5.10;99.90;;;;;;5054718;28;20052;-74
2023/12/30 07:00:07;;;;;;;14.50;2.30;;;5.10;99.90;;;;;;5055095;28;20079;-74
2023/12/30 07:02:34;;;;;;;12.85;2.22;;;5.10;99.90;;;;;;5022082;28;20485;-75
2023/12/30 07:04:59;;;;;;;14.43;2.15;;;5.10;99.90;;;;;;5038062;28;20047;-74
2023/12/30 07:07:25;;;;;;;13.07;2.17;;;5.10;99.90;;;;;;5054611;28;20131;-74
2023/12/30 07:09:51;;;;;;;13.02;2.42;;;5.10;99.90;;;;;;5054771;28;20044;-74
2023/12/30 07:12:17;;;;;;;10.85;2.03;;;5.20;99.90;;;;;;5054637;28;20097;-74
2023/12/30 07:14:43;;;;;;;12.38;2.20;;;5.20;99.90;;;;;;5054638;28;20037;-74
2023/12/30 07:17:08;;;;;;;15.10;2.30;;;5.10;99.90;;;;;;5038015;28;20400;-74
2023/12/30 07:19:37;;;;;;;14.27;2.22;;;5.10;99.90;;;;;;5072737;28;20384;-74
2023/12/30 07:22:03;;;;;;;13.65;2.05;;;5.10;99.90;;;;;;5021497;28;20040;-74
2023/12/30 07:24:29;;;;;;;14.15;2.10;;;5.10;99.90;;;;;;5037846;28;20447;-75
2023/12/30 07:26:54;;;;;;;13.38;2.05;;;5.10;99.90;;;;;;5037960;28;20076;-75
2023/12/30 07:29:20;;;;;;;14.23;2.33;;;5.10;99.90;;;;;;5037846;28;20162;-74
2023/12/30 07:31:46;;;;;;;11.50;2.10;;;5.10;99.90;;;;;;5054400;28;20463;-74
2023/12/30 07:34:11;;;;;;;10.85;2.00;;;5.00;99.90;;;;;;5054321;28;20511;-74
2023/12/30 07:36:37;;;;;;;12.98;2.20;;;5.10;99.90;;;;;;5021653;28;20083;-74
2023/12/30 07:39:03;;;;;;;12.48;2.10;;;5.00;99.90;;;;;;5037720;28;20041;-74
2023/12/30 07:41:29;;;;;;;12.80;2.10;;;5.00;99.90;;;;;;5054074;28;20131;-74
2023/12/30 07:43:55;;;;;;;12.02;2.00;;;4.90;99.90;;;;;;5037809;28;20128;-73
2023/12/30 07:46:21;;;;;;;13.32;2.28;;;4.90;99.90;;;;;;5054386;28;20045;-75
2023/12/30 07:48:47;;;;;;;11.10;2.28;;;4.90;99.90;;;;;;5037753;28;20040;-74
2023/12/30 07:51:13;;;;;;;11.95;2.20;;;4.90;99.90;;;;;;5021630;28;20081;-74
2023/12/30 07:53:38;;;;;;;14.93;2.25;;;4.80;99.90;;;;;;5057379;28;20044;-74
2023/12/30 07:56:04;;;;;;;14.77;2.30;;;4.80;99.90;;;;;;5058093;28;20048;-74
2023/12/30 07:58:30;;;;;;;14.23;2.10;;;4.80;99.90;;;;;;5057926;28;20053;-74
2023/12/30 08:00:56;;;;;;;8.65;1.67;;;4.80;99.90;;;;;;5041470;28;20544;-74
2023/12/30 08:03:22;;;;;;;8.98;2.05;;;4.80;99.90;;;;;;5057941;28;20562;-74
2023/12/30 08:05:47;;;;;;;12.60;2.08;;;4.80;99.90;;;;;;5024964;28;20477;-74
2023/12/30 08:08:13;;;;;;;8.88;1.90;;;4.80;99.90;;;;;;5041536;28;20149;-69
2023/12/30 08:10:39;;;;;;;10.02;2.08;;;4.80;99.90;;;;;;5041208;28;20451;-69
2023/12/30 08:13:05;;;;;;;13.60;2.20;;;4.90;99.90;;;;;;5057595;28;20044;-69
2023/12/30 08:15:31;;;;;;;11.75;2.10;;;4.90;99.90;;;;;;5041352;28;20044;-69
2023/12/30 08:17:56;;;;;;;11.93;2.20;;;4.80;99.90;;;;;;5040892;28;20041;-69
2023/12/30 08:20:22;;;;;;;14.80;2.00;;;4.80;99.90;;;;;;5040970;28;20063;-69
2023/12/30 08:22:50;;;;;;;12.68;2.50;;;4.90;99.90;;;;;;5040887;28;20123;-69
2023/12/30 08:25:16;;;;;;;10.75;2.22;;;4.90;99.90;;;;;;5041172;28;20113;-70
2023/12/30 08:27:42;;;;;;;13.27;1.98;;;4.90;99.90;;;;;;5040990;28;20040;-70
2023/12/30 08:30:08;;;;;;;10.63;2.05;;;4.90;99.90;;;;;;5008128;28;20496;-70
2023/12/30 08:32:34;;;;;;;10.60;1.95;;;4.90;99.90;;;;;;5024241;28;20123;-70
2023/12/30 08:35:02;;;;;;;12.85;2.17;;;4.90;99.90;;;;;;5040547;28;20123;-70
2023/12/30 08:37:29;;;;;;;9.50;2.03;;;4.90;99.90;;;;;;5057239;28;20079;-70
2023/12/30 08:39:55;;;;;;;13.05;2.22;;;5.00;99.90;;;;;;5040878;28;20094;-70
2023/12/30 08:42:22;;;;;;;12.20;2.15;;;5.00;99.90;;;;;;5057453;28;20040;-70
2023/12/30 08:44:47;;;;;;;10.60;2.00;;;5.00;99.90;;;;;;5040933;28;20115;-70
2023/12/30 08:47:15;;;;;;;11.77;2.22;;;5.10;99.90;;;;;;5040760;28;20044;-70
2023/12/30 08:49:41;;;;;;;11.50;2.10;;;5.20;99.90;;;;;;5024678;28;20051;-70
2023/12/30 08:52:07;;;;;;;13.45;2.40;;;5.20;99.90;;;;;;5040545;28;20036;-70
2023/12/30 08:54:33;;;;;;;13.80;2.08;;;5.30;99.90;;;;;;5040892;28;20074;-69
2023/12/30 08:56:59;;;;;;;12.05;2.22;;;5.40;99.90;;;;;;5040366;28;20500;-70
2023/12/30 08:59:24;;;;;;;11.60;2.38;;;5.40;99.90;;;;;;5040412;28;20033;-70
2023/12/30 09:01:51;;;;;;;14.02;2.33;;;5.40;99.90;;;;;;5040213;28;20032;-70
2023/12/30 09:04:18;;;;;;;10.80;2.10;;;5.40;99.90;;;;;;5039742;28;20043;-70
2023/12/30 09:06:44;;;;;;;13.00;2.40;;;5.50;99.90;;;;;;5056642;28;20040;-70
2023/12/30 09:09:11;;;;;;;11.57;2.50;;;5.50;99.90;;;;;;5056943;28;20099;-70
2023/12/30 09:11:38;;;;;;;13.45;2.55;;;5.60;99.90;;;;;;5056957;28;20489;-70
2023/12/30 09:14:05;;;;;;;13.80;2.33;;;5.70;99.90;;;;;;5023413;28;20045;-71
2023/12/30 09:16:32;;;;;;;11.70;2.50;;;5.70;99.90;;;;;;5056720;28;20123;-70
2023/12/30 09:19:01;;;;;;;10.57;2.28;;;5.80;99.90;;;;;;5040686;28;20040;-74
2023/12/30 09:21:26;;;;;;;10.20;2.45;;;5.80;99.90;;;;;;5056652;28;20063;-75
2023/12/30 09:23:52;;;;;;;15.75;2.70;;;5.80;99.90;;;;;;5023502;28;20051;-75
2023/12/30 09:26:18;;;;;;;14.52;3.00;;;5.90;99.90;;;;;;5039885;28;20100;-74
2023/12/30 09:28:44;;;;;;;14.80;3.33;;;5.90;99.90;;;;;;5039611;28;20044;-75
2023/12/30 09:31:10;;;;;;;14.30;3.70;;;5.90;99.90;;;;;;5056306;28;20044;-74
2023/12/30 09:33:36;;;;;;;13.98;4.20;;;5.90;99.90;;;;;;5039581;28;20060;-74
2023/12/30 09:36:02;;;;;;;17.23;4.60;;;6.00;99.90;;;;;;5039561;28;20044;-74
2023/12/30 09:38:28;;;;;;;18.55;5.10;;;6.00;99.90;;;;;;5056121;28;20036;-74
2023/12/30 09:40:55;;;;;;;18.77;5.70;;;6.00;99.90;;;;;;5056156;28;20047;-75
2023/12/30 09:43:26;;;;;;;16.30;5.20;;;6.00;99.90;;;;;;5039394;28;20047;-75
2023/12/30 09:45:54;;;;;;;17.80;5.10;;;6.10;99.90;;;;;;5056277;28;20048;-75
2023/12/30 09:48:24;;;;;;;15.18;5.45;;;6.20;99.90;;;;;;5055951;28;20279;-75
2023/12/30 09:50:51;;;;;;;17.02;6.00;;;6.20;99.90;;;;;;5039756;28;20071;-75
2023/12/30 09:53:17;;;;;;;16.27;5.32;;;6.20;99.90;;;;;;5055792;28;20044;-75
2023/12/30 09:55:46;;;;;;;17.77;6.00;;;6.20;99.90;;;;;;5055741;28;20037;-75
2023/12/30 09:58:17;;;;;;;18.08;5.57;;;6.30;99.90;;;;;;5055676;28;20056;-74
2023/12/30 10:00:43;;;;;;;17.17;5.78;;;6.30;99.90;;;;;;5055670;28;20068;-75
2023/12/30 10:03:14;;;;;;;17.40;5.47;;;6.40;99.90;;;;;;5039793;28;20496;-75
2023/12/30 10:05:40;;;;;;;21.40;5.78;;;6.40;99.90;;;;;;5038978;28;20082;-75
2023/12/30 10:08:07;;;;;;;16.70;6.35;;;6.50;99.90;;;;;;5055935;28;20532;-75
2023/12/30 10:10:43;;;;;;;16.08;5.90;;;6.50;99.90;;;;;;5039207;28;20135;-74
2023/12/30 10:13:10;;;;;;;15.02;5.90;;;6.50;99.90;;;;;;5055585;28;20039;-75
2023/12/30 10:15:35;;;;;;;18.52;6.60;;;6.50;99.90;;;;;;5021806;28;20041;-75
2023/12/30 10:18:03;;;;;;;19.33;6.93;;;6.60;99.90;;;;;;5038677;28;20485;-75
2023/12/30 10:20:29;;;;;;;21.58;7.07;;;6.60;99.90;;;;;;5039021;28;20093;-75
2023/12/30 10:22:56;;;;;;;20.35;7.10;;;6.60;99.90;;;;;;5022312;28;20076;-75
2023/12/30 10:25:21;;;;;;;15.02;6.88;;;6.60;99.90;;;;;;5039004;28;20508;-75
2023/12/30 10:27:48;;;;;;;16.92;6.93;;;6.70;99.90;;;;;;5038991;28;20040;-75
2023/12/30 10:30:19;;;;;;;18.52;6.95;;;6.80;99.90;;;;;;5038664;28;20048;-75
2023/12/30 10:32:46;;;;;;;18.52;7.10;;;6.80;99.90;;;;;;5038647;28;20052;-75
2023/12/30 10:35:15;;;;;;;17.75;6.57;;;6.90;99.90;;;;;;5038487;28;20037;-75
2023/12/30 10:37:44;;;;;;;17.60;6.47;;;6.90;99.90;;;;;;5055123;28;20041;-75
2023/12/30 10:40:10;;;;;;;16.05;6.35;;;7.00;99.90;;;;;;5055248;28;20032;-75
2023/12/30 10:42:39;;;;;;;19.02;6.70;;;7.10;99.90;;;;;;5055250;28;20048;-75
2023/12/30 10:45:06;;;;;;;19.80;6.15;;;7.10;99.90;;;;;;5055175;28;20044;-75
2023/12/30 10:47:37;;;;;;;14.90;5.68;;;7.20;99.90;;;;;;5038374;28;20048;-74
2023/12/30 10:50:06;;;;;;;15.23;5.30;;;7.30;99.90;;;;;;5055013;28;20148;-74
2023/12/30 10:52:35;;;;;;;14.13;5.03;;;7.30;99.90;;;;;;5038208;28;20036;-75
2023/12/30 10:55:13;;;;;;;14.25;4.78;;;7.40;99.90;;;;;;5055198;28;20032;-75
2023/12/30 10:57:48;;;;;;;15.70;4.20;;;7.40;99.90;;;;;;5054659;28;20107;-75
2023/12/30 11:00:20;;;;;;;16.30;3.95;;;7.50;99.90;;;;;;5055100;28;20435;-75
2023/12/30 11:02:47;;;;;;;13.27;3.83;;;7.50;99.90;;;;;;5021817;28;20041;-75
2023/12/30 11:05:38;;;;;;;12.00;3.45;;;7.50;99.90;;;;;;5054660;28;20059;-75
2023/12/30 11:08:05;;;;;;;12.32;3.50;;;7.50;99.90;;;;;;5054718;28;20137;-75
2023/12/30 11:10:33;;;;;;;15.82;3.30;;;7.50;99.90;;;;;;5038126;28;20036;-75
2023/12/30 11:12:59;;;;;;;13.65;3.15;;;7.50;99.90;;;;;;5054555;28;20095;-75
2023/12/30 11:15:26;;;;;;;13.93;3.08;;;7.40;99.90;;;;;;5054599;28;20040;-75
2023/12/30 11:17:52;;;;;;;16.25;3.22;;;7.40;99.90;;;;;;5054657;28;20048;-75
2023/12/30 11:20:32;;;;;;;13.52;3.25;;;7.40;99.90;;;;;;5038097;28;20036;-75
2023/12/30 11:23:00;;;;;;;11.35;3.20;;;7.30;99.90;;;;;;5038417;28;20484;-76
2023/12/30 11:25:37;;;;;;;15.45;3.28;;;7.30;99.90;;;;;;5038015;28;20133;-75
2023/12/30 11:28:18;;;;;;;10.90;2.90;;;7.30;99.90;;;;;;5040641;28;20435;-75
2023/12/30 11:30:45;;;;;;;12.73;2.80;;;7.40;99.90;;;;;;5041987;28;20051;-75
2023/12/30 11:33:13;;;;;;;11.77;2.90;;;7.50;99.90;;;;;;5058447;28;20080;-75
2023/12/30 11:35:39;;;;;;;14.85;3.03;;;7.50;99.90;;;;;;5058766;28;20032;-75
2023/12/30 11:38:09;;;;;;;12.88;2.83;;;7.50;99.90;;;;;;5058540;28;20094;-71
2023/12/30 11:40:57;;;;;;;13.95;3.10;;;7.70;99.90;;;;;;5025925;28;20388;-70
2023/12/30 11:43:25;;;;;;;13.57;2.85;;;7.70;99.90;;;;;;5058349;28;20055;-71
2023/12/30 11:45:53;;;;;;;15.43;3.20;;;7.80;99.90;;;;;;5058534;28;20507;-71
2023/12/30 11:48:19;;;;;;;14.57;2.92;;;7.90;99.90;;;;;;5041960;28;20370;-71
2023/12/30 11:50:52;;;;;;;12.95;2.92;;;7.90;99.90;;;;;;5041621;28;20047;-71
2023/12/30 11:53:18;;;;;;;14.05;2.90;;;7.90;99.90;;;;;;5041407;28;20040;-71
2023/12/30 11:55:44;;;;;;;14.70;3.30;;;8.00;99.90;;;;;;5058371;28;20044;-71
2023/12/30 11:58:10;;;;;;;14.55;3.10;;;8.00;99.90;;;;;;5058014;28;20070;-70
2023/12/30 12:00:36;;;;;;;12.93;3.33;;;8.00;99.90;;;;;;5024970;28;20062;-71
2023/12/30 12:03:03;;;;;;;16.17;3.40;;;8.00;99.90;;;;;;5041793;28;20488;-70
2023/12/30 12:05:30;;;;;;;14.57;3.38;;;8.00;99.90;;;;;;5041490;28;20048;-71
2023/12/30 12:07:56;;;;;;;16.00;3.72;;;8.00;99.90;;;;;;5057811;28;20571;-72
2023/12/30 12:10:22;;;;;;;14.65;3.13;;;7.90;99.90;;;;;;5058107;28;20591;-71
2023/12/30 12:12:48;;;;;;;14.85;3.50;;;7.90;99.90;;;;;;5041051;28;20051;-71
2023/12/30 12:15:14;;;;;;;15.45;3.67;;;7.90;99.90;;;;;;5057737;28;20043;-70
2023/12/30 12:17:40;;;;;;;17.38;3.35;;;7.80;99.90;;;;;;5024968;28;20040;-71
2023/12/30 12:20:08;;;;;;;13.63;3.10;;;7.90;99.90;;;;;;5058005;28;20496;-70
2023/12/30 12:22:34;;;;;;;15.20;3.63;;;7.90;99.90;;;;;;5041359;28;20036;-71
2023/12/30 12:25:03;;;;;;;17.30;3.60;;;7.90;99.90;;;;;;5024455;28;20040;-71
2023/12/30 12:27:30;;;;;;;13.90;3.13;;;7.90;99.90;;;;;;5041097;28;20429;-71
2023/12/30 12:29:56;;;;;;;17.08;3.92;;;8.00;99.90;;;;;;5057470;28;20040;-71
2023/12/30 12:32:23;;;;;;;15.77;3.55;;;8.00;99.90;;;;;;5024527;28;20500;-71
2023/12/30 12:34:51;;;;;;;14.18;3.50;;;8.00;99.90;;;;;;5057623;28;20366;-71
2023/12/30 12:37:17;;;;;;;15.43;3.60;;;8.00;99.90;;;;;;5057322;28;20062;-71
2023/12/30 12:39:44;;;;;;;17.05;3.95;;;8.00;99.90;;;;;;5056249;28;20036;-71
2023/12/30 12:42:11;;;;;;;15.35;3.88;;;8.00;99.90;;;;;;5057450;28;20507;-70
2023/12/30 12:44:38;;;;;;;16.40;4.05;;;8.00;99.90;;;;;;5024286;28;20055;-71